sensor_id;sensor_type;location;lat;lon;timestamp;temperature;humidity
19829;DHT22;10075;50.924;4.396;2024-03-23T00:53:09;9.60;99.90
19829;DHT22;10075;50.924;4.396;2024-03-23T00:55:35;9.60;99.90
19829;DHT22;10075;50.924;4.396;2024-03-23T00:58:02;9.60;99.90
19829;DHT22;10075;50.924;4.396;2024-03-23T01:00:28;9.60;99.90
19829;DHT22;10075;50.924;4.396;2024-03-23T01:02:55;9.60;99.90
19829;DHT22;10075;50.924;4.396;2024-03-23T01:05:21;9.60;99.90
19829;DHT22;10075;50.924;4.396;2024-03-23T01:07:48;9.60;99.90
19829;DHT22;10075;50.924;4.396;2024-03-23T01:10:15;9.60;99.90
19829;DHT22;10075;50.924;4.396;2024-03-23T01:12:42;9.70;99.90
19829;DHT22;10075;50.924;4.396;2024-03-23T01:15:09;9.60;99.90
19829;DHT22;10075;50.924;4.396;2024-03-23T01:17:36;9.60;99.90
19829;DHT22;10075;50.924;4.396;2024-03-23T01:20:02;9.60;99.90
19829;DHT22;10075;50.924;4.396;2024-03-23T01:22:29;9.60;99.90
19829;DHT22;10075;50.924;4.396;2024-03-23T01:24:55;9.50;99.90
19829;DHT22;10075;50.924;4.396;2024-03-23T01:27:23;9.50;99.90
19829;DHT22;10075;50.924;4.396;2024-03-23T01:29:49;9.40;99.90
19829;DHT22;10075;50.924;4.396;2024-03-23T01:32:18;9.30;99.90
19829;DHT22;10075;50.924;4.396;2024-03-23T01:34:44;9.40;99.90
19829;DHT22;10075;50.924;4.396;2024-03-23T01:37:11;9.30;99.90
19829;DHT22;10075;50.924;4.396;2024-03-23T01:39:36;9.30;99.90
19829;DHT22;10075;50.924;4.396;2024-03-23T01:42:04;9.30;99.90
19829;DHT22;10075;50.924;4.396;2024-03-23T01:44:31;9.10;99.90
19829;DHT22;10075;50.924;4.396;2024-03-23T01:46:58;9.10;99.90
19829;DHT22;10075;50.924;4.396;2024-03-23T01:49:24;9.20;99.90
19829;DHT22;10075;50.924;4.396;2024-03-23T01:51:51;9.20;99.90
19829;DHT22;10075;50.924;4.396;2024-03-23T01:54:17;9.30;99.90
19829;DHT22;10075;50.924;4.396;2024-03-23T01:56:45;9.30;99.90
19829;DHT22;10075;50.924;4.396;2024-03-23T01:59:11;9.30;99.90
19829;DHT22;10075;50.924;4.396;2024-03-23T02:01:39;9.20;99.90
19829;DHT22;10075;50.924;4.396;2024-03-23T02:04:05;9.30;99.90
19829;DHT22;10075;50.924;4.396;2024-03-23T02:06:33;9.20;99.90
19829;DHT22;10075;50.924;4.396;2024-03-23T02:09:00;9.20;99.90
19829;DHT22;10075;50.924;4.396;2024-03-23T02:11:27;9.20;99.90
19829;DHT22;10075;50.924;4.396;2024-03-23T02:13:53;9.20;99.90
19829;DHT22;10075;50.924;4.396;2024-03-23T02:16:20;9.20;99.90
19829;DHT22;10075;50.924;4.396;2024-03-23T02:18:47;9.20;99.90
19829;DHT22;10075;50.924;4.396;2024-03-23T02:21:15;9.10;99.90
19829;DHT22;10075;50.924;4.396;2024-03-23T02:23:42;9.10;99.90
19829;DHT22;10075;50.924;4.396;2024-03-23T02:26:09;9.20;99.90
19829;DHT22;10075;50.924;4.396;2024-03-23T02:28:35;9.20;99.90
19829;DHT22;10075;50.924;4.396;2024-03-23T02:31:02;9.20;99.90
19829;DHT22;10075;50.924;4.396;2024-03-23T02:33:30;9.20;99.90
19829;DHT22;10075;50.924;4.396;2024-03-23T02:35:57;9.30;99.90
19829;DHT22;10075;50.924;4.396;2024-03-23T02:38:23;9.20;99.90
19829;DHT22;10075;50.924;4.396;2024-03-23T02:40:51;9.20;99.90
19829;DHT22;10075;50.924;4.396;2024-03-23T02:43:17;9.30;99.90
19829;DHT22;10075;50.924;4.396;2024-03-23T02:45:44;9.30;99.90
19829;DHT22;10075;50.924;4.396;2024-03-23T02:48:10;9.20;99.90
19829;DHT22;10075;50.924;4.396;2024-03-23T02:50:37;9.30;99.90
19829;DHT22;10075;50.924;4.396;2024-03-23T02:53:03;9.20;99.90
19829;DHT22;10075;50.924;4.396;2024-03-23T02:55:30;9.20;99.90
19829;DHT22;10075;50.924;4.396;2024-03-23T02:57:57;9.20;99.90
19829;DHT22;10075;50.924;4.396;2024-03-23T03:00:27;9.20;99.90
19829;DHT22;10075;50.924;4.396;2024-03-23T03:02:53;9.20;99.90
19829;DHT22;10075;50.924;4.396;2024-03-23T03:05:21;9.20;99.90
19829;DHT22;10075;50.924;4.396;2024-03-23T03:07:46;9.20;99.90
19829;DHT22;10075;50.924;4.396;2024-03-23T03:10:13;9.20;99.90
19829;DHT22;10075;50.924;4.396;2024-03-23T03:12:40;9.20;99.90
19829;DHT22;10075;50.924;4.396;2024-03-23T03:15:09;9.20;99.90
19829;DHT22;10075;50.924;4.396;2024-03-23T03:17:35;9.20;99.90
19829;DHT22;10075;50.924;4.396;2024-03-23T03:20:02;9.20;99.90
19829;DHT22;10075;50.924;4.396;2024-03-23T03:22:30;9.10;99.90
19829;DHT22;10075;50.924;4.396;2024-03-23T03:24:57;9.10;99.90
19829;DHT22;10075;50.924;4.396;2024-03-23T03:27:23;9.10;99.90
19829;DHT22;10075;50.924;4.396;2024-03-23T03:29:50;9.10;99.90
19829;DHT22;10075;50.924;4.396;2024-03-23T03:32:17;9.10;99.90
19829;DHT22;10075;50.924;4.396;2024-03-23T03:34:44;9.00;99.90
19829;DHT22;10075;50.924;4.396;2024-03-23T03:37:10;9.00;99.90
19829;DHT22;10075;50.924;4.396;2024-03-23T03:39:37;8.90;99.90
19829;DHT22;10075;50.924;4.396;2024-03-23T03:42:02;8.90;99.90
19829;DHT22;10075;50.924;4.396;2024-03-23T03:44:32;8.90;99.90
19829;DHT22;10075;50.924;4.396;2024-03-23T03:46:58;8.80;99.90
19829;DHT22;10075;50.924;4.396;2024-03-23T03:49:26;8.80;99.90
19829;DHT22;10075;50.924;4.396;2024-03-23T03:51:52;8.80;99.90
19829;DHT22;10075;50.924;4.396;2024-03-23T03:54:19;8.70;99.90
19829;DHT22;10075;50.924;4.396;2024-03-23T03:56:45;8.70;99.90
19829;DHT22;10075;50.924;4.396;2024-03-23T03:59:12;8.60;99.90
19829;DHT22;10075;50.924;4.396;2024-03-23T04:01:38;8.60;99.90
19829;DHT22;10075;50.924;4.396;2024-03-23T04:04:05;8.60;99.90
19829;DHT22;10075;50.924;4.396;2024-03-23T04:06:32;8.50;99.90
19829;DHT22;10075;50.924;4.396;2024-03-23T04:08:59;8.50;99.90
19829;DHT22;10075;50.924;4.396;2024-03-23T04:11:25;8.50;99.90
19829;DHT22;10075;50.924;4.396;2024-03-23T04:13:52;8.50;99.90
19829;DHT22;10075;50.924;4.396;2024-03-23T04:16:26;8.50;99.90
19829;DHT22;10075;50.924;4.396;2024-03-23T04:18:53;8.50;99.90
19829;DHT22;10075;50.924;4.396;2024-03-23T04:21:19;8.50;99.90
19829;DHT22;10075;50.924;4.396;2024-03-23T04:23:47;8.50;99.90
19829;DHT22;10075;50.924;4.396;2024-03-23T04:26:14;8.50;99.90
19829;DHT22;10075;50.924;4.396;2024-03-23T04:28:41;8.50;99.90
19829;DHT22;10075;50.924;4.396;2024-03-23T04:31:08;8.50;99.90
19829;DHT22;10075;50.924;4.396;2024-03-23T04:33:36;8.50;99.90
19829;DHT22;10075;50.924;4.396;2024-03-23T04:36:02;8.40;99.90
19829;DHT22;10075;50.924;4.396;2024-03-23T04:38:29;8.50;99.90
19829;DHT22;10075;50.924;4.396;2024-03-23T04:40:58;8.50;99.90
19829;DHT22;10075;50.924;4.396;2024-03-23T04:43:26;8.60;99.90
19829;DHT22;10075;50.924;4.396;2024-03-23T04:45:53;8.50;99.90
19829;DHT22;10075;50.924;4.396;2024-03-23T04:48:20;8.50;99.90
19829;DHT22;10075;50.924;4.396;2024-03-23T04:50:46;8.50;99.90
19829;DHT22;10075;50.924;4.396;2024-03-23T04:53:14;8.40;99.90
19829;DHT22;10075;50.924;4.396;2024-03-23T04:55:42;8.30;99.90
19829;DHT22;10075;50.924;4.396;2024-03-23T04:58:11;8.10;99.90
19829;DHT22;10075;50.924;4.396;2024-03-23T05:00:36;8.10;99.90
19829;DHT22;10075;50.924;4.396;2024-03-23T05:03:04;8.20;99.90
19829;DHT22;10075;50.924;4.396;2024-03-23T05:05:30;8.10;99.90
19829;DHT22;10075;50.924;4.396;2024-03-23T05:07:57;8.20;99.90
19829;DHT22;10075;50.924;4.396;2024-03-23T05:10:22;8.00;99.90
19829;DHT22;10075;50.924;4.396;2024-03-23T05:12:49;8.00;99.90
19829;DHT22;10075;50.924;4.396;2024-03-23T05:15:17;7.90;99.90
19829;DHT22;10075;50.924;4.396;2024-03-23T05:17:44;8.00;99.90
19829;DHT22;10075;50.924;4.396;2024-03-23T05:20:11;7.90;99.90
19829;DHT22;10075;50.924;4.396;2024-03-23T05:22:38;7.80;99.90
19829;DHT22;10075;50.924;4.396;2024-03-23T05:25:05;7.60;99.90
19829;DHT22;10075;50.924;4.396;2024-03-23T05:27:32;7.60;99.90
19829;DHT22;10075;50.924;4.396;2024-03-23T05:29:59;7.60;99.90
19829;DHT22;10075;50.924;4.396;2024-03-23T05:32:26;7.70;99.90
19829;DHT22;10075;50.924;4.396;2024-03-23T05:34:54;7.60;99.90
19829;DHT22;10075;50.924;4.396;2024-03-23T05:37:22;7.60;99.90
19829;DHT22;10075;50.924;4.396;2024-03-23T05:39:49;7.60;99.90
19829;DHT22;10075;50.924;4.396;2024-03-23T05:42:15;7.70;99.90
19829;DHT22;10075;50.924;4.396;2024-03-23T05:44:43;7.60;99.90
19829;DHT22;10075;50.924;4.396;2024-03-23T05:47:10;7.70;99.90
19829;DHT22;10075;50.924;4.396;2024-03-23T05:49:40;7.70;99.90
19829;DHT22;10075;50.924;4.396;2024-03-23T05:52:07;7.80;99.90
19829;DHT22;10075;50.924;4.396;2024-03-23T05:54:34;7.80;99.90
19829;DHT22;10075;50.924;4.396;2024-03-23T05:57:00;7.80;99.90
19829;DHT22;10075;50.924;4.396;2024-03-23T05:59:27;7.80;99.90
19829;DHT22;10075;50.924;4.396;2024-03-23T06:01:53;7.70;99.90
19829;DHT22;10075;50.924;4.396;2024-03-23T06:04:20;7.80;99.90
19829;DHT22;10075;50.924;4.396;2024-03-23T06:06:48;7.80;99.90
19829;DHT22;10075;50.924;4.396;2024-03-23T06:09:15;7.70;99.90
19829;DHT22;10075;50.924;4.396;2024-03-23T06:11:41;7.70;99.90
19829;DHT22;10075;50.924;4.396;2024-03-23T06:14:08;7.70;99.90
19829;DHT22;10075;50.924;4.396;2024-03-23T06:16:33;7.70;99.90
19829;DHT22;10075;50.924;4.396;2024-03-23T06:19:00;7.80;99.90
19829;DHT22;10075;50.924;4.396;2024-03-23T06:21:29;7.90;99.90
19829;DHT22;10075;50.924;4.396;2024-03-23T06:23:57;7.80;99.90
19829;DHT22;10075;50.924;4.396;2024-03-23T06:26:23;7.80;99.90
19829;DHT22;10075;50.924;4.396;2024-03-23T06:28:50;7.80;99.90
19829;DHT22;10075;50.924;4.396;2024-03-23T06:31:16;7.80;99.90
19829;DHT22;10075;50.924;4.396;2024-03-23T06:33:43;7.70;99.90
19829;DHT22;10075;50.924;4.396;2024-03-23T06:36:10;7.80;99.90
19829;DHT22;10075;50.924;4.396;2024-03-23T06:38:37;7.90;99.90
19829;DHT22;10075;50.924;4.396;2024-03-23T06:41:05;7.90;99.90
19829;DHT22;10075;50.924;4.396;2024-03-23T06:43:32;8.00;99.90
19829;DHT22;10075;50.924;4.396;2024-03-23T06:45:58;7.90;99.90
19829;DHT22;10075;50.924;4.396;2024-03-23T06:48:25;7.80;99.90
19829;DHT22;10075;50.924;4.396;2024-03-23T06:50:55;7.90;99.90
19829;DHT22;10075;50.924;4.396;2024-03-23T06:53:23;7.90;99.90
19829;DHT22;10075;50.924;4.396;2024-03-23T06:55:50;8.00;99.90
19829;DHT22;10075;50.924;4.396;2024-03-23T06:58:20;8.10;99.90
19829;DHT22;10075;50.924;4.396;2024-03-23T07:00:46;8.20;99.90
19829;DHT22;10075;50.924;4.396;2024-03-23T07:03:14;8.20;99.90
19829;DHT22;10075;50.924;4.396;2024-03-23T07:05:40;8.00;99.90
19829;DHT22;10075;50.924;4.396;2024-03-23T07:08:07;7.90;99.90
19829;DHT22;10075;50.924;4.396;2024-03-23T07:10:33;7.90;99.90
19829;DHT22;10075;50.924;4.396;2024-03-23T07:13:01;7.50;99.90
19829;DHT22;10075;50.924;4.396;2024-03-23T07:15:28;7.40;99.90
19829;DHT22;10075;50.924;4.396;2024-03-23T07:17:55;7.30;99.90
19829;DHT22;10075;50.924;4.396;2024-03-23T07:20:21;7.40;99.90
19829;DHT22;10075;50.924;4.396;2024-03-23T07:22:48;7.40;99.90
19829;DHT22;10075;50.924;4.396;2024-03-23T07:25:14;7.30;99.90
19829;DHT22;10075;50.924;4.396;2024-03-23T07:27:42;7.30;99.90
19829;DHT22;10075;50.924;4.396;2024-03-23T07:30:08;7.20;99.90
19829;DHT22;10075;50.924;4.396;2024-03-23T07:32:37;7.20;99.90
19829;DHT22;10075;50.924;4.396;2024-03-23T07:35:03;7.10;99.90
19829;DHT22;10075;50.924;4.396;2024-03-23T07:37:31;7.20;99.90
19829;DHT22;10075;50.924;4.396;2024-03-23T07:39:57;7.30;99.90
19829;DHT22;10075;50.924;4.396;2024-03-23T07:42:25;7.50;99.90
19829;DHT22;10075;50.924;4.396;2024-03-23T07:44:52;7.50;99.90
19829;DHT22;10075;50.924;4.396;2024-03-23T07:47:20;7.40;99.90
19829;DHT22;10075;50.924;4.396;2024-03-23T07:49:47;7.60;99.90
19829;DHT22;10075;50.924;4.396;2024-03-23T07:52:14;7.60;99.90
19829;DHT22;10075;50.924;4.396;2024-03-23T07:54:40;7.60;99.90
19829;DHT22;10075;50.924;4.396;2024-03-23T07:57:07;7.50;99.90
19829;DHT22;10075;50.924;4.396;2024-03-23T07:59:33;7.60;99.90
19829;DHT22;10075;50.924;4.396;2024-03-23T08:02:00;7.70;99.90
19829;DHT22;10075;50.924;4.396;2024-03-23T08:04:27;7.70;99.90
19829;DHT22;10075;50.924;4.396;2024-03-23T08:06:55;7.80;99.90
19829;DHT22;10075;50.924;4.396;2024-03-23T08:09:22;7.90;99.90
19829;DHT22;10075;50.924;4.396;2024-03-23T08:11:49;7.90;99.90
19829;DHT22;10075;50.924;4.396;2024-03-23T08:14:14;8.00;99.90
19829;DHT22;10075;50.924;4.396;2024-03-23T08:16:41;7.90;99.90
19829;DHT22;10075;50.924;4.396;2024-03-23T08:19:07;8.00;99.90
19829;DHT22;10075;50.924;4.396;2024-03-23T08:21:35;7.90;99.90
19829;DHT22;10075;50.924;4.396;2024-03-23T08:24:02;8.10;99.90
19829;DHT22;10075;50.924;4.396;2024-03-23T08:26:30;8.30;99.90
19829;DHT22;10075;50.924;4.396;2024-03-23T08:28:59;8.20;99.90
19829;DHT22;10075;50.924;4.396;2024-03-23T08:31:26;8.20;99.90
19829;DHT22;10075;50.924;4.396;2024-03-23T08:33:52;8.20;99.90
19829;DHT22;10075;50.924;4.396;2024-03-23T08:36:19;8.60;99.90
19829;DHT22;10075;50.924;4.396;2024-03-23T08:38:45;8.80;99.90
19829;DHT22;10075;50.924;4.396;2024-03-23T08:41:14;8.70;99.90
19829;DHT22;10075;50.924;4.396;2024-03-23T08:43:41;8.70;99.90
19829;DHT22;10075;50.924;4.396;2024-03-23T08:46:09;8.60;99.90
19829;DHT22;10075;50.924;4.396;2024-03-23T08:48:36;8.70;99.90
19829;DHT22;10075;50.924;4.396;2024-03-23T08:51:04;8.70;99.90
19829;DHT22;10075;50.924;4.396;2024-03-23T08:53:30;8.50;99.90
19829;DHT22;10075;50.924;4.396;2024-03-23T08:55:58;8.90;99.90
19829;DHT22;10075;50.924;4.396;2024-03-23T08:58:26;8.50;99.90
19829;DHT22;10075;50.924;4.396;2024-03-23T09:00:54;8.60;99.90
19829;DHT22;10075;50.924;4.396;2024-03-23T09:03:22;8.60;99.90
19829;DHT22;10075;50.924;4.396;2024-03-23T09:05:49;8.60;99.90
19829;DHT22;10075;50.924;4.396;2024-03-23T09:08:15;8.90;99.90
19829;DHT22;10075;50.924;4.396;2024-03-23T09:10:42;9.10;99.90
19829;DHT22;10075;50.924;4.396;2024-03-23T09:13:08;9.10;99.90
19829;DHT22;10075;50.924;4.396;2024-03-23T09:15:45;9.40;99.90
19829;DHT22;10075;50.924;4.396;2024-03-23T09:18:11;9.50;99.90
19829;DHT22;10075;50.924;4.396;2024-03-23T09:20:38;9.50;99.90
19829;DHT22;10075;50.924;4.396;2024-03-23T09:23:04;9.40;99.90
19829;DHT22;10075;50.924;4.396;2024-03-23T09:25:31;9.40;99.90
19829;DHT22;10075;50.924;4.396;2024-03-23T09:27:58;9.40;99.90
19829;DHT22;10075;50.924;4.396;2024-03-23T09:30:25;9.60;99.90
19829;DHT22;10075;50.924;4.396;2024-03-23T09:32:52;9.60;99.90
19829;DHT22;10075;50.924;4.396;2024-03-23T09:35:19;9.40;99.90
19829;DHT22;10075;50.924;4.396;2024-03-23T09:37:45;9.50;99.90
19829;DHT22;10075;50.924;4.396;2024-03-23T09:40:12;9.60;99.90
19829;DHT22;10075;50.924;4.396;2024-03-23T09:42:38;9.80;99.90
19829;DHT22;10075;50.924;4.396;2024-03-23T09:45:06;10.10;99.90
19829;DHT22;10075;50.924;4.396;2024-03-23T09:47:35;10.00;99.90
19829;DHT22;10075;50.924;4.396;2024-03-23T09:50:04;10.20;99.90
19829;DHT22;10075;50.924;4.396;2024-03-23T09:52:30;10.30;99.90
19829;DHT22;10075;50.924;4.396;2024-03-23T09:54:57;10.20;99.90
19829;DHT22;10075;50.924;4.396;2024-03-23T09:57:23;10.50;99.90
19829;DHT22;10075;50.924;4.396;2024-03-23T09:59:50;10.50;99.90
19829;DHT22;10075;50.924;4.396;2024-03-23T10:02:16;10.40;99.90
19829;DHT22;10075;50.924;4.396;2024-03-23T10:04:46;10.40;99.90
19829;DHT22;10075;50.924;4.396;2024-03-23T10:07:14;10.50;99.90
19829;DHT22;10075;50.924;4.396;2024-03-23T10:09:42;10.50;99.90
19829;DHT22;10075;50.924;4.396;2024-03-23T10:12:10;10.70;99.90
19829;DHT22;10075;50.924;4.396;2024-03-23T10:14:37;10.70;99.90
19829;DHT22;10075;50.924;4.396;2024-03-23T10:17:14;10.40;99.90
19829;DHT22;10075;50.924;4.396;2024-03-23T10:19:43;10.20;99.90
19829;DHT22;10075;50.924;4.396;2024-03-23T10:22:12;10.20;99.90
19829;DHT22;10075;50.924;4.396;2024-03-23T10:24:41;9.80;99.90
19829;DHT22;10075;50.924;4.396;2024-03-23T10:27:07;9.60;99.90
19829;DHT22;10075;50.924;4.396;2024-03-23T10:29:34;9.40;99.90
19829;DHT22;10075;50.924;4.396;2024-03-23T10:32:10;9.40;99.90
19829;DHT22;10075;50.924;4.396;2024-03-23T10:34:38;9.50;99.90
19829;DHT22;10075;50.924;4.396;2024-03-23T10:37:05;9.70;99.90
19829;DHT22;10075;50.924;4.396;2024-03-23T10:39:33;10.20;99.90
19829;DHT22;10075;50.924;4.396;2024-03-23T10:42:02;10.50;99.90
19829;DHT22;10075;50.924;4.396;2024-03-23T10:44:30;10.80;99.90
19829;DHT22;10075;50.924;4.396;2024-03-23T10:46:57;10.80;99.90
19829;DHT22;10075;50.924;4.396;2024-03-23T10:49:27;11.00;99.90
19829;DHT22;10075;50.924;4.396;2024-03-23T10:51:56;11.20;99.90
19829;DHT22;10075;50.924;4.396;2024-03-23T10:54:25;11.20;99.90
19829;DHT22;10075;50.924;4.396;2024-03-23T10:57:04;11.70;99.90
19829;DHT22;10075;50.924;4.396;2024-03-23T10:59:36;11.80;99.90
19829;DHT22;10075;50.924;4.396;2024-03-23T11:02:03;11.70;99.90
19829;DHT22;10075;50.924;4.396;2024-03-23T11:04:30;11.70;99.90
19829;DHT22;10075;50.924;4.396;2024-03-23T11:06:57;12.00;99.90
19829;DHT22;10075;50.924;4.396;2024-03-23T11:09:40;12.10;99.90
19829;DHT22;10075;50.924;4.396;2024-03-23T11:12:26;11.90;99.90
19829;DHT22;10075;50.924;4.396;2024-03-23T11:14:55;12.00;99.90
19829;DHT22;10075;50.924;4.396;2024-03-23T11:17:23;11.90;99.90
19829;DHT22;10075;50.924;4.396;2024-03-23T11:19:53;11.70;99.90
19829;DHT22;10075;50.924;4.396;2024-03-23T11:22:38;11.80;99.90
19829;DHT22;10075;50.924;4.396;2024-03-23T11:25:13;11.90;99.90
19829;DHT22;10075;50.924;4.396;2024-03-23T11:27:39;11.90;99.90
19829;DHT22;10075;50.924;4.396;2024-03-23T11:30:15;11.80;99.90
19829;DHT22;10075;50.924;4.396;2024-03-23T11:32:42;11.60;99.90
19829;DHT22;10075;50.924;4.396;2024-03-23T11:35:09;11.50;99.90
19829;DHT22;10075;50.924;4.396;2024-03-23T11:37:36;11.60;99.90
19829;DHT22;10075;50.924;4.396;2024-03-23T11:40:20;11.60;99.90
19829;DHT22;10075;50.924;4.396;2024-03-23T11:42:46;11.30;99.90
19829;DHT22;10075;50.924;4.396;2024-03-23T11:45:14;11.50;99.90
19829;DHT22;10075;50.924;4.396;2024-03-23T11:47:44;11.70;99.90
19829;DHT22;10075;50.924;4.396;2024-03-23T11:50:19;11.40;99.90
19829;DHT22;10075;50.924;4.396;2024-03-23T11:52:45;11.70;99.90
19829;DHT22;10075;50.924;4.396;2024-03-23T11:55:12;11.90;99.90
19829;DHT22;10075;50.924;4.396;2024-03-23T11:57:38;11.90;99.90
19829;DHT22;10075;50.924;4.396;2024-03-23T12:03:16;11.80;99.90
19829;DHT22;10075;50.924;4.396;2024-03-23T12:05:48;11.70;99.90
19829;DHT22;10075;50.924;4.396;2024-03-23T12:08:20;11.60;99.90
19829;DHT22;10075;50.924;4.396;2024-03-23T12:10:49;11.60;99.90
19829;DHT22;10075;50.924;4.396;2024-03-23T12:13:19;11.50;99.90
19829;DHT22;10075;50.924;4.396;2024-03-23T12:15:47;11.60;99.90
19829;DHT22;10075;50.924;4.396;2024-03-23T12:18:15;11.50;99.90
19829;DHT22;10075;50.924;4.396;2024-03-23T12:20:42;11.50;99.90
19829;DHT22;10075;50.924;4.396;2024-03-23T12:23:09;11.30;99.90
19829;DHT22;10075;50.924;4.396;2024-03-23T12:25:37;10.80;99.90
19829;DHT22;10075;50.924;4.396;2024-03-23T12:28:04;10.60;99.90
19829;DHT22;10075;50.924;4.396;2024-03-23T12:30:33;10.60;99.90
19829;DHT22;10075;50.924;4.396;2024-03-23T12:32:59;10.30;99.90
19829;DHT22;10075;50.924;4.396;2024-03-23T12:35:28;10.30;99.90
19829;DHT22;10075;50.924;4.396;2024-03-23T12:37:54;10.40;99.90
19829;DHT22;10075;50.924;4.396;2024-03-23T12:40:21;10.60;99.90
19829;DHT22;10075;50.924;4.396;2024-03-23T12:42:47;10.70;99.90
19829;DHT22;10075;50.924;4.396;2024-03-23T12:45:14;10.70;99.90
19829;DHT22;10075;50.924;4.396;2024-03-23T12:47:40;10.80;99.90
19829;DHT22;10075;50.924;4.396;2024-03-23T12:50:07;11.00;99.90
19829;DHT22;10075;50.924;4.396;2024-03-23T12:52:35;11.10;99.90
19829;DHT22;10075;50.924;4.396;2024-03-23T12:55:02;11.10;99.90
19829;DHT22;10075;50.924;4.396;2024-03-23T12:57:29;11.40;99.90
19829;DHT22;10075;50.924;4.396;2024-03-23T12:59:56;11.70;99.90
19829;DHT22;10075;50.924;4.396;2024-03-23T13:02:22;12.00;99.90
19829;DHT22;10075;50.924;4.396;2024-03-23T13:04:50;12.30;99.90
19829;DHT22;10075;50.924;4.396;2024-03-23T13:07:16;12.60;99.90
19829;DHT22;10075;50.924;4.396;2024-03-23T13:09:44;12.70;99.90
19829;DHT22;10075;50.924;4.396;2024-03-23T13:12:11;12.60;99.90
19829;DHT22;10075;50.924;4.396;2024-03-23T13:14:39;12.20;99.90
19829;DHT22;10075;50.924;4.396;2024-03-23T13:17:05;11.50;99.90
19829;DHT22;10075;50.924;4.396;2024-03-23T13:19:32;11.10;99.90
19829;DHT22;10075;50.924;4.396;2024-03-23T13:21:59;11.20;99.90
19829;DHT22;10075;50.924;4.396;2024-03-23T13:24:27;11.20;99.90
19829;DHT22;10075;50.924;4.396;2024-03-23T13:26:55;11.40;99.90
19829;DHT22;10075;50.924;4.396;2024-03-23T13:29:23;11.60;99.90
19829;DHT22;10075;50.924;4.396;2024-03-23T13:31:50;11.60;99.90
19829;DHT22;10075;50.924;4.396;2024-03-23T13:34:18;11.50;99.90
19829;DHT22;10075;50.924;4.396;2024-03-23T13:36:44;11.30;99.90
19829;DHT22;10075;50.924;4.396;2024-03-23T13:39:12;11.70;99.90
19829;DHT22;10075;50.924;4.396;2024-03-23T13:41:38;12.10;99.90
19829;DHT22;10075;50.924;4.396;2024-03-23T13:44:08;12.30;99.90
19829;DHT22;10075;50.924;4.396;2024-03-23T13:46:36;12.60;99.90
19829;DHT22;10075;50.924;4.396;2024-03-23T13:49:02;12.80;99.90
19829;DHT22;10075;50.924;4.396;2024-03-23T13:51:29;12.40;99.90
19829;DHT22;10075;50.924;4.396;2024-03-23T13:53:55;12.20;99.90
19829;DHT22;10075;50.924;4.396;2024-03-23T13:56:22;11.80;99.90
19829;DHT22;10075;50.924;4.396;2024-03-23T13:58:51;11.40;99.90
19829;DHT22;10075;50.924;4.396;2024-03-23T14:01:20;11.10;99.90
19829;DHT22;10075;50.924;4.396;2024-03-23T14:03:45;10.80;99.90
19829;DHT22;10075;50.924;4.396;2024-03-23T14:06:12;10.10;99.90
19829;DHT22;10075;50.924;4.396;2024-03-23T14:08:38;9.70;99.90
19829;DHT22;10075;50.924;4.396;2024-03-23T14:11:06;9.40;99.90
19829;DHT22;10075;50.924;4.396;2024-03-23T14:13:32;9.50;99.90
19829;DHT22;10075;50.924;4.396;2024-03-23T14:15:59;9.40;99.90
19829;DHT22;10075;50.924;4.396;2024-03-23T14:18:27;9.50;99.90
19829;DHT22;10075;50.924;4.396;2024-03-23T14:20:58;9.80;99.90
19829;DHT22;10075;50.924;4.396;2024-03-23T14:23:24;10.00;99.90
19829;DHT22;10075;50.924;4.396;2024-03-23T14:25:55;10.20;99.90
19829;DHT22;10075;50.924;4.396;2024-03-23T14:28:22;10.40;99.90
19829;DHT22;10075;50.924;4.396;2024-03-23T14:30:49;10.30;99.90
19829;DHT22;10075;50.924;4.396;2024-03-23T14:33:15;10.20;99.90
19829;DHT22;10075;50.924;4.396;2024-03-23T14:35:51;10.10;99.90
19829;DHT22;10075;50.924;4.396;2024-03-23T14:38:17;10.10;99.90
19829;DHT22;10075;50.924;4.396;2024-03-23T14:40:44;10.50;99.90
19829;DHT22;10075;50.924;4.396;2024-03-23T14:43:10;10.90;99.90
19829;DHT22;10075;50.924;4.396;2024-03-23T14:45:37;11.10;99.90
19829;DHT22;10075;50.924;4.396;2024-03-23T14:48:03;11.10;99.90
19829;DHT22;10075;50.924;4.396;2024-03-23T14:50:30;10.90;99.90
19829;DHT22;10075;50.924;4.396;2024-03-23T14:52:57;10.80;99.90
19829;DHT22;10075;50.924;4.396;2024-03-23T14:55:24;11.00;99.90
19829;DHT22;10075;50.924;4.396;2024-03-23T14:57:50;10.90;99.90
19829;DHT22;10075;50.924;4.396;2024-03-23T15:00:17;10.80;99.90
19829;DHT22;10075;50.924;4.396;2024-03-23T15:02:44;11.30;99.90
19829;DHT22;10075;50.924;4.396;2024-03-23T15:05:12;12.10;99.90
19829;DHT22;10075;50.924;4.396;2024-03-23T15:07:38;12.80;99.90
19829;DHT22;10075;50.924;4.396;2024-03-23T15:10:08;13.80;99.90
19829;DHT22;10075;50.924;4.396;2024-03-23T15:12:35;14.10;99.90
19829;DHT22;10075;50.924;4.396;2024-03-23T15:15:03;15.00;99.90
19829;DHT22;10075;50.924;4.396;2024-03-23T15:17:29;16.10;99.90
19829;DHT22;10075;50.924;4.396;2024-03-23T15:20:00;17.00;99.90
19829;DHT22;10075;50.924;4.396;2024-03-23T15:22:25;17.40;99.90
19829;DHT22;10075;50.924;4.396;2024-03-23T15:24:52;17.30;99.90
19829;DHT22;10075;50.924;4.396;2024-03-23T15:27:20;17.20;99.90
19829;DHT22;10075;50.924;4.396;2024-03-23T15:29:49;17.00;99.60
19829;DHT22;10075;50.924;4.396;2024-03-23T15:32:15;16.90;99.90
19829;DHT22;10075;50.924;4.396;2024-03-23T15:34:43;17.00;99.20
19829;DHT22;10075;50.924;4.396;2024-03-23T15:37:09;17.20;98.60
19829;DHT22;10075;50.924;4.396;2024-03-23T15:39:36;18.20;96.70
19829;DHT22;10075;50.924;4.396;2024-03-23T15:42:03;18.30;96.70
19829;DHT22;10075;50.924;4.396;2024-03-23T15:44:32;17.40;97.00
19829;DHT22;10075;50.924;4.396;2024-03-23T15:46:58;17.60;98.20
19829;DHT22;10075;50.924;4.396;2024-03-23T15:49:25;18.30;96.60
19829;DHT22;10075;50.924;4.396;2024-03-23T15:51:52;18.80;96.40
19829;DHT22;10075;50.924;4.396;2024-03-23T15:54:19;19.20;95.60
19829;DHT22;10075;50.924;4.396;2024-03-23T15:56:45;18.20;96.30
19829;DHT22;10075;50.924;4.396;2024-03-23T15:59:12;16.70;98.20
19829;DHT22;10075;50.924;4.396;2024-03-23T16:01:39;15.40;99.70
19829;DHT22;10075;50.924;4.396;2024-03-23T16:04:06;14.40;99.90
19829;DHT22;10075;50.924;4.396;2024-03-23T16:06:32;14.00;99.90
19829;DHT22;10075;50.924;4.396;2024-03-23T16:08:59;13.80;99.90
19829;DHT22;10075;50.924;4.396;2024-03-23T16:11:25;13.60;99.90
19829;DHT22;10075;50.924;4.396;2024-03-23T16:13:52;13.20;99.90
19829;DHT22;10075;50.924;4.396;2024-03-23T16:16:18;13.00;99.90
19829;DHT22;10075;50.924;4.396;2024-03-23T16:18:49;12.80;99.90
19829;DHT22;10075;50.924;4.396;2024-03-23T16:21:15;12.50;99.90
19829;DHT22;10075;50.924;4.396;2024-03-23T16:23:43;12.60;99.90
19829;DHT22;10075;50.924;4.396;2024-03-23T16:26:10;12.30;99.90
19829;DHT22;10075;50.924;4.396;2024-03-23T16:28:38;11.80;99.90
19829;DHT22;10075;50.924;4.396;2024-03-23T16:31:07;11.80;99.90
19829;DHT22;10075;50.924;4.396;2024-03-23T16:33:35;11.80;99.90
19829;DHT22;10075;50.924;4.396;2024-03-23T16:36:04;11.80;99.90